Greenbrier, South Carolina
Current Conditions -  °F | °C
As of 7:15 AM on Sunday 23 Nov 2014 (Local Time) from KFDW Reporting Station
Light Rain Light Rain  
Wind Chill: 42°   Ceiling: 200
Heat Index: 46°   Visibility: 4mi
Dew Point: 46°   Wind: 8mph
Humidity: 100%   Direction: 70°ENE
Pressure: 30.19"   Gusts: NA
Location:  34.4133°N, 81.1456°W
Report Text: KFDW 231215Z AUTO 07007KT 4SM -RA OVC002 08/08 A3019 RMK AO1
Loading
Personal Weather Stations






























Interactive Weather Map New forecast layout! Learn more

10-Day Weather Forecast

Advertisements
Track Severe Weather on mobile